createdAt,value
2018-07-23T00:02:08.514Z,86.28
2018-07-23T00:04:38.632Z,86.31
2018-07-23T00:07:09.691Z,86.02
2018-07-23T00:09:40.068Z,85.90
2018-07-23T00:12:10.064Z,85.42
2018-07-23T00:14:40.272Z,85.75
2018-07-23T00:17:10.941Z,85.80
2018-07-23T00:19:41.408Z,85.89
2018-07-23T00:22:11.961Z,85.56
2018-07-23T00:24:42.333Z,84.57
2018-07-23T00:27:12.680Z,84.63
2018-07-23T00:29:42.805Z,84.86
2018-07-23T00:32:13.715Z,84.14
2018-07-23T00:34:44.268Z,84.80
2018-07-23T00:37:14.991Z,84.04
2018-07-23T00:39:45.540Z,84.93
2018-07-23T00:42:15.754Z,84.33
2018-07-23T00:44:46.112Z,84.48
2018-07-23T00:47:16.458Z,84.74
2018-07-23T00:49:46.703Z,84.94
2018-07-23T00:52:16.812Z,84.69
2018-07-23T00:54:47.146Z,84.17
2018-07-23T00:57:17.419Z,84.00
2018-07-23T00:59:47.514Z,84.25
2018-07-23T01:02:18.595Z,84.52
2018-07-23T01:04:48.759Z,84.50
2018-07-23T01:07:19.091Z,84.05
2018-07-23T01:09:49.219Z,84.36
2018-07-23T01:12:35.596Z,84.24
2018-07-23T01:15:06.048Z,84.18
2018-07-23T01:17:37.193Z,84.32
2018-07-23T01:20:07.279Z,85.00
2018-07-23T01:22:37.505Z,84.83
2018-07-23T01:25:07.722Z,84.32
2018-07-23T01:27:38.022Z,84.61
2018-07-23T01:30:08.577Z,84.51
2018-07-23T01:32:38.728Z,85.01
2018-07-23T01:35:08.883Z,84.39
2018-07-23T01:37:39.837Z,84.63
2018-07-23T01:40:10.209Z,85.16
2018-07-23T01:42:40.656Z,84.60
2018-07-23T01:45:10.594Z,85.18
2018-07-23T01:47:41.318Z,85.20
2018-07-23T01:50:12.139Z,85.18
2018-07-23T01:52:42.477Z,84.54
2018-07-23T01:55:13.083Z,84.79
2018-07-23T01:57:43.327Z,84.15
2018-07-23T02:00:13.553Z,84.37
2018-07-23T02:02:43.841Z,85.09
2018-07-23T02:05:13.961Z,84.88
2018-07-23T02:07:44.015Z,85.20
2018-07-23T02:10:13.997Z,84.83
2018-07-23T02:12:44.219Z,85.70
2018-07-23T02:15:15.452Z,85.54
2018-07-23T02:17:45.588Z,85.35
2018-07-23T02:20:15.200Z,85.76
2018-07-23T02:22:45.352Z,86.13
2018-07-23T02:25:15.690Z,86.04
2018-07-23T02:27:45.877Z,86.22
2018-07-23T02:30:15.986Z,86.17
2018-07-23T02:32:46.635Z,85.39
2018-07-23T02:35:16.993Z,85.90
2018-07-23T02:37:47.284Z,86.10
2018-07-23T02:40:17.472Z,85.93
2018-07-23T02:42:47.672Z,86.60
2018-07-23T02:45:17.791Z,86.51
2018-07-23T02:47:48.602Z,86.32
2018-07-23T02:50:19.512Z,86.46
2018-07-23T02:55:49.352Z,86.95
2018-07-23T02:58:20.219Z,87.29
2018-07-23T03:00:50.569Z,87.21
2018-07-23T03:03:20.593Z,87.31
2018-07-23T03:05:51.030Z,87.67
2018-07-23T03:08:21.304Z,87.77
2018-07-23T03:10:51.576Z,88.01
2018-07-23T03:13:21.712Z,87.79
2018-07-23T03:15:52.004Z,87.70
2018-07-23T03:18:22.554Z,88.32
2018-07-23T03:20:52.909Z,88.57
2018-07-23T03:23:23.019Z,88.69
2018-07-23T03:25:53.213Z,88.93
2018-07-23T03:28:23.514Z,88.84
2018-07-23T03:30:53.780Z,89.15
2018-07-23T03:33:24.132Z,89.20
2018-07-23T03:35:54.442Z,89.52
2018-07-23T03:38:24.655Z,89.62
2018-07-23T03:40:54.978Z,89.44
2018-07-23T03:43:25.154Z,89.45
2018-07-23T03:45:55.320Z,89.52
2018-07-23T03:48:25.645Z,89.88
2018-07-23T03:50:56.216Z,89.54
2018-07-23T03:53:26.259Z,89.41
2018-07-23T03:55:56.784Z,89.31
2018-07-23T03:58:27.072Z,89.17
2018-07-23T04:00:57.818Z,89.10
2018-07-23T04:03:27.934Z,88.91
2018-07-23T04:05:58.145Z,88.71
2018-07-23T04:08:28.857Z,89.00
2018-07-23T04:10:58.956Z,88.85
2018-07-23T04:13:29.092Z,88.82
2018-07-23T04:15:59.732Z,88.92
2018-07-23T04:18:30.106Z,89.16
2018-07-23T04:21:00.642Z,89.42
2018-07-23T04:23:30.804Z,89.20
2018-07-23T04:26:01.039Z,89.46
2018-07-23T04:28:31.092Z,89.96
2018-07-23T04:31:01.344Z,89.86
2018-07-23T04:33:31.558Z,89.96
2018-07-23T04:36:01.923Z,89.94
2018-07-23T04:38:33.006Z,89.54
2018-07-23T04:41:03.342Z,89.73
2018-07-23T04:43:33.813Z,89.98
2018-07-23T04:46:04.000Z,89.89
2018-07-23T04:48:34.623Z,89.96
2018-07-23T04:51:05.196Z,90.21
2018-07-23T04:53:35.405Z,90.10
2018-07-23T04:56:05.988Z,89.78
2018-07-23T04:58:37.087Z,89.83
2018-07-23T05:01:07.834Z,89.93
2018-07-23T05:03:38.127Z,90.04
2018-07-23T05:06:08.401Z,90.26
2018-07-23T05:08:39.151Z,90.30
2018-07-23T05:11:09.444Z,90.55
2018-07-23T05:13:39.612Z,90.47
2018-07-23T05:16:10.650Z,90.47
2018-07-23T05:18:41.218Z,90.70
2018-07-23T05:21:11.317Z,90.60
2018-07-23T05:23:41.494Z,90.87
2018-07-23T05:26:11.725Z,90.96
2018-07-23T05:28:42.173Z,90.89
2018-07-23T05:31:12.582Z,90.90
2018-07-23T05:33:42.776Z,90.94
2018-07-23T05:36:12.914Z,90.62
2018-07-23T05:38:43.090Z,90.24
2018-07-23T05:41:13.763Z,89.95
2018-07-23T05:43:43.904Z,89.85
2018-07-23T05:46:14.092Z,89.84
2018-07-23T05:48:44.197Z,89.62
2018-07-23T05:51:14.808Z,89.11
2018-07-23T05:53:45.846Z,89.58
2018-07-23T05:56:16.058Z,88.98
2018-07-23T05:58:47.189Z,88.66
2018-07-23T06:01:18.362Z,88.15
2018-07-23T06:03:48.563Z,87.72
2018-07-23T06:06:18.879Z,87.55
2018-07-23T06:08:49.402Z,87.50
2018-07-23T06:11:19.612Z,87.52
2018-07-23T06:13:49.855Z,87.06
2018-07-23T06:16:20.317Z,87.18
2018-07-23T06:18:50.863Z,87.47
2018-07-23T06:21:21.247Z,87.42
2018-07-23T06:23:51.500Z,87.51
2018-07-23T06:26:21.913Z,87.64
2018-07-23T06:28:52.396Z,87.43
2018-07-23T06:31:22.523Z,88.00
2018-07-23T06:33:53.184Z,87.95
2018-07-23T06:36:24.105Z,87.67
2018-07-23T06:38:54.361Z,87.85
2018-07-23T06:41:24.658Z,87.86
2018-07-23T06:43:55.541Z,87.90
2018-07-23T06:46:25.815Z,88.12
2018-07-23T06:48:56.454Z,88.15
2018-07-23T06:51:26.700Z,88.28
2018-07-23T06:53:56.887Z,87.99
2018-07-23T06:56:27.305Z,88.10
2018-07-23T06:58:57.426Z,87.78
2018-07-23T07:01:27.662Z,87.51
2018-07-23T07:03:57.952Z,87.79
2018-07-23T07:06:28.397Z,87.37
2018-07-23T07:08:58.943Z,87.01
2018-07-23T07:11:29.172Z,86.81
2018-07-23T07:13:59.390Z,86.82
2018-07-23T07:16:29.804Z,86.54
2018-07-23T07:18:59.887Z,86.93
2018-07-23T07:21:30.177Z,86.35
2018-07-23T07:24:00.469Z,86.36
2018-07-23T07:26:30.807Z,86.31
2018-07-23T07:29:01.207Z,85.91
2018-07-23T07:31:31.319Z,85.19
2018-07-23T07:34:01.449Z,85.45
2018-07-23T07:36:31.648Z,85.45
2018-07-23T07:39:01.913Z,85.46
2018-07-23T07:41:32.087Z,85.02
2018-07-23T07:44:02.395Z,85.25
2018-07-23T07:46:32.851Z,85.17
2018-07-23T07:49:03.648Z,85.18
2018-07-23T07:51:33.893Z,85.06
2018-07-23T07:54:04.221Z,85.32
2018-07-23T07:56:34.655Z,85.41
2018-07-23T07:59:05.222Z,85.42
2018-07-23T08:01:35.814Z,85.55
2018-07-23T08:04:05.995Z,85.14
2018-07-23T08:06:36.272Z,85.51
2018-07-23T08:09:08.333Z,85.70
2018-07-23T08:11:39.318Z,85.58
2018-07-23T08:14:09.645Z,86.31
2018-07-23T08:16:40.734Z,86.53
2018-07-23T08:19:10.902Z,86.53
2018-07-23T08:21:41.145Z,86.55
2018-07-23T08:24:11.825Z,86.17
2018-07-23T08:26:48.738Z,86.48
2018-07-23T08:29:19.128Z,87.03
2018-07-23T08:31:49.530Z,86.92
2018-07-23T08:34:19.611Z,87.32
2018-07-23T08:36:50.060Z,87.03
2018-07-23T08:39:20.422Z,86.94
2018-07-23T08:41:50.549Z,86.98
2018-07-23T08:44:21.104Z,86.57
2018-07-23T08:46:51.518Z,86.66
2018-07-23T08:49:21.734Z,86.82
2018-07-23T08:51:52.297Z,86.81
2018-07-23T08:54:22.474Z,87.00
2018-07-23T08:56:52.894Z,87.35
2018-07-23T08:59:23.372Z,87.19
2018-07-23T09:01:53.770Z,87.60
2018-07-23T09:04:23.932Z,87.26
2018-07-23T09:06:54.493Z,86.93
2018-07-23T09:09:24.643Z,86.84
2018-07-23T09:11:55.241Z,87.23
2018-07-23T09:14:25.390Z,86.72
2018-07-23T09:16:55.587Z,86.55
2018-07-23T09:19:26.424Z,85.93
2018-07-23T09:21:56.757Z,85.74
2018-07-23T09:24:26.943Z,85.72
2018-07-23T09:26:57.344Z,86.19
2018-07-23T09:29:27.479Z,85.84
2018-07-23T09:31:57.676Z,86.13
2018-07-23T09:34:27.932Z,85.63
2018-07-23T09:36:58.120Z,86.04
2018-07-23T09:39:28.186Z,85.68
2018-07-23T09:41:58.370Z,86.15
2018-07-23T09:44:28.769Z,85.73
2018-07-23T09:46:59.250Z,86.06
2018-07-23T09:49:29.505Z,86.15
2018-07-23T09:51:59.675Z,86.21
2018-07-23T09:54:30.052Z,86.83
2018-07-23T09:57:01.270Z,86.88
2018-07-23T09:59:31.640Z,86.91
2018-07-23T10:02:01.863Z,85.64
2018-07-23T10:04:32.503Z,86.12
2018-07-23T10:07:03.207Z,84.94
2018-07-23T10:09:33.603Z,84.35
2018-07-23T10:12:03.883Z,84.20
2018-07-23T10:14:34.269Z,84.26
2018-07-23T10:17:04.664Z,83.36
2018-07-23T10:19:34.932Z,83.01
2018-07-23T10:22:05.607Z,82.81
2018-07-23T10:24:35.976Z,82.36
2018-07-23T10:27:06.337Z,82.05
2018-07-23T10:29:36.977Z,80.97
2018-07-23T10:32:07.484Z,81.36
2018-07-23T10:34:37.334Z,81.03
2018-07-23T10:37:07.481Z,80.26
2018-07-23T10:39:37.604Z,79.67
2018-07-23T10:42:09.090Z,79.77
2018-07-23T10:44:39.285Z,79.78
2018-07-23T10:47:09.412Z,79.38
2018-07-23T10:49:39.672Z,78.49
2018-07-23T10:52:10.214Z,78.31
2018-07-23T10:54:40.560Z,77.59
2018-07-23T10:57:10.973Z,78.15
2018-07-23T10:59:41.120Z,77.23
2018-07-23T11:02:12.042Z,77.65
2018-07-23T11:04:42.047Z,77.35
2018-07-23T11:07:12.294Z,77.25
2018-07-23T11:09:42.559Z,76.33
2018-07-23T11:12:12.803Z,76.47
2018-07-23T11:14:43.156Z,76.17
2018-07-23T11:17:13.299Z,76.53
2018-07-23T11:19:43.599Z,75.85
2018-07-23T11:22:13.765Z,74.72
2018-07-23T11:24:45.622Z,74.20
2018-07-23T11:27:14.590Z,74.48
2018-07-23T11:29:45.097Z,73.28
2018-07-23T11:32:15.327Z,73.30
2018-07-23T11:34:45.635Z,73.33
2018-07-23T11:37:15.976Z,72.65
2018-07-23T11:39:46.077Z,73.01
2018-07-23T11:42:16.356Z,71.62
2018-07-23T11:44:46.626Z,71.88
2018-07-23T11:47:17.193Z,70.34
2018-07-23T11:49:48.101Z,70.28
2018-07-23T11:52:18.281Z,68.71
2018-07-23T11:54:48.344Z,66.29
2018-07-23T11:57:19.447Z,63.94
2018-07-23T11:59:49.547Z,62.75
2018-07-23T12:02:20.024Z,61.84
2018-07-23T12:04:50.192Z,62.78
2018-07-23T12:07:20.483Z,61.89
2018-07-23T12:09:51.010Z,61.81
2018-07-23T12:12:21.118Z,61.34
2018-07-23T12:14:51.562Z,60.59
2018-07-23T12:17:21.819Z,60.63
2018-07-23T12:19:52.083Z,59.42
2018-07-23T12:22:22.204Z,58.82
2018-07-23T12:24:52.351Z,59.34
2018-07-23T12:27:22.411Z,59.28
2018-07-23T12:29:52.475Z,59.63
2018-07-23T12:32:23.179Z,60.34
2018-07-23T12:34:54.231Z,60.75
2018-07-23T12:37:24.416Z,59.70
2018-07-23T12:39:54.802Z,60.46
2018-07-23T12:42:25.016Z,58.34
2018-07-23T12:44:55.227Z,57.16
2018-07-23T12:47:25.378Z,56.50
2018-07-23T12:49:55.827Z,56.86
2018-07-23T12:52:26.002Z,56.15
2018-07-23T12:54:56.339Z,53.95
2018-07-23T12:57:26.474Z,54.09
2018-07-23T12:59:56.763Z,53.87
2018-07-23T13:02:28.119Z,53.20
2018-07-23T13:04:58.480Z,53.83
2018-07-23T13:07:28.773Z,51.73
2018-07-23T13:09:59.050Z,51.10
2018-07-23T13:12:29.596Z,51.53
2018-07-23T13:15:00.131Z,52.50
2018-07-23T13:17:30.388Z,52.45
2018-07-23T13:20:00.590Z,51.78
2018-07-23T13:22:30.591Z,51.69
2018-07-23T13:25:01.196Z,50.66
2018-07-23T13:27:31.378Z,51.17
2018-07-23T13:30:01.588Z,51.67
2018-07-23T13:32:31.644Z,50.67
2018-07-23T13:35:01.476Z,50.88
2018-07-23T13:37:32.078Z,50.81
2018-07-23T13:40:02.378Z,50.16
2018-07-23T13:42:32.528Z,50.27
2018-07-23T13:45:02.790Z,49.51
2018-07-23T13:47:33.272Z,49.92
2018-07-23T13:50:03.475Z,49.94
2018-07-23T13:52:33.708Z,49.40
2018-07-23T13:55:04.070Z,49.27
2018-07-23T13:57:34.106Z,50.03
2018-07-23T14:00:04.258Z,49.69
2018-07-23T14:02:34.442Z,49.68
2018-07-23T14:05:04.922Z,48.76
2018-07-23T14:07:35.253Z,49.24
2018-07-23T14:10:05.155Z,47.31
2018-07-23T14:12:35.712Z,47.80
2018-07-23T14:15:07.216Z,46.55
2018-07-23T14:17:37.544Z,46.39
2018-07-23T14:20:08.378Z,46.21
2018-07-23T14:22:38.668Z,46.07
2018-07-23T14:25:08.895Z,45.08
2018-07-23T14:27:39.059Z,46.45
2018-07-23T14:30:09.288Z,46.06
2018-07-23T14:32:40.428Z,45.47
2018-07-23T14:35:10.597Z,45.16
2018-07-23T14:37:40.714Z,45.22
2018-07-23T14:40:10.995Z,45.90
2018-07-23T14:42:41.203Z,45.77
2018-07-23T14:45:11.689Z,46.01
2018-07-23T14:47:42.270Z,46.12
2018-07-23T14:50:12.433Z,46.66
2018-07-23T14:52:42.703Z,46.12
2018-07-23T14:55:13.044Z,46.19
2018-07-23T14:57:43.317Z,46.52
2018-07-23T15:00:13.578Z,46.70
2018-07-23T15:02:43.626Z,44.60
2018-07-23T15:05:13.729Z,44.38
2018-07-23T15:07:43.939Z,44.37
2018-07-23T15:10:14.087Z,44.29
2018-07-23T15:12:44.638Z,45.03
2018-07-23T15:15:14.850Z,43.12
2018-07-23T15:17:45.261Z,43.13
2018-07-23T15:20:18.835Z,40.60
2018-07-23T15:22:49.519Z,40.01
2018-07-23T15:25:20.036Z,38.99
2018-07-23T15:27:50.502Z,38.85
2018-07-23T15:30:20.426Z,39.75
2018-07-23T15:32:50.637Z,38.38
2018-07-23T15:35:20.882Z,37.86
2018-07-23T15:37:52.428Z,38.80
2018-07-23T15:40:22.738Z,37.67
2018-07-23T15:42:52.899Z,38.37
2018-07-23T15:45:23.531Z,38.32
2018-07-23T15:47:54.005Z,38.03
2018-07-23T15:50:28.990Z,37.89
2018-07-23T15:52:59.777Z,38.54
2018-07-23T15:55:29.919Z,38.50
2018-07-23T15:58:00.491Z,38.22
2018-07-23T16:00:30.834Z,37.55
2018-07-23T16:03:01.180Z,36.65
2018-07-23T16:05:31.369Z,35.45
2018-07-23T16:08:01.685Z,35.34
2018-07-23T16:10:31.938Z,35.38
2018-07-23T16:13:02.208Z,35.04
2018-07-23T16:15:32.457Z,34.93
2018-07-23T16:18:02.815Z,35.28
2018-07-23T16:20:32.885Z,35.26
2018-07-23T16:23:02.922Z,34.20
2018-07-23T16:25:33.201Z,34.86
2018-07-23T16:28:03.572Z,34.75
2018-07-23T16:30:35.165Z,34.49
2018-07-23T16:33:10.353Z,35.03
2018-07-23T16:35:45.100Z,34.89
2018-07-23T16:38:15.970Z,34.28
2018-07-23T16:40:46.465Z,34.95
2018-07-23T16:43:16.547Z,35.19
2018-07-23T16:45:46.813Z,34.94
2018-07-23T16:48:16.852Z,34.74
2018-07-23T16:50:47.537Z,34.54
2018-07-23T16:53:17.619Z,33.91
2018-07-23T16:55:47.665Z,34.81
2018-07-23T16:58:17.896Z,35.40
2018-07-23T17:00:48.638Z,35.02
2018-07-23T17:03:18.885Z,34.94
2018-07-23T17:05:49.634Z,35.37
2018-07-23T17:08:19.541Z,35.52
2018-07-23T17:10:50.077Z,35.99
2018-07-23T17:13:20.556Z,36.29
2018-07-23T17:15:50.616Z,35.99
2018-07-23T17:18:20.705Z,35.56
2018-07-23T17:20:51.282Z,35.22
2018-07-23T17:23:21.301Z,35.85
2018-07-23T17:25:51.419Z,35.86
2018-07-23T17:28:21.672Z,36.14
2018-07-23T17:30:52.339Z,36.23
2018-07-23T17:33:22.780Z,36.99
2018-07-23T17:35:52.883Z,36.19
2018-07-23T17:38:24.814Z,36.48
2018-07-23T17:40:55.077Z,37.08
2018-07-23T17:43:25.316Z,36.15
2018-07-23T17:45:55.620Z,36.88
2018-07-23T17:48:26.066Z,36.83
2018-07-23T17:50:56.489Z,37.44
2018-07-23T17:53:27.001Z,36.59
2018-07-23T17:55:57.294Z,37.77
2018-07-23T17:58:27.515Z,37.47
2018-07-23T18:00:58.702Z,38.28
2018-07-23T18:03:28.784Z,38.57
2018-07-23T18:05:58.903Z,38.37
2018-07-23T18:08:29.022Z,38.67
2018-07-23T18:10:59.666Z,37.91
2018-07-23T18:13:29.923Z,38.78
2018-07-23T18:16:00.367Z,38.97
2018-07-23T18:18:30.382Z,38.35
2018-07-23T18:21:00.553Z,38.33
2018-07-23T18:23:31.035Z,39.58
2018-07-23T18:26:02.170Z,39.45
2018-07-23T18:28:32.191Z,39.46
2018-07-23T18:31:03.065Z,40.11
2018-07-23T18:33:33.327Z,38.98
2018-07-23T18:36:03.535Z,39.64
2018-07-23T18:38:34.324Z,39.79
2018-07-23T18:41:04.571Z,39.30
2018-07-23T18:43:34.730Z,40.03
2018-07-23T18:46:05.654Z,39.47
2018-07-23T18:49:46.532Z,39.41
2018-07-23T18:52:17.238Z,39.49
2018-07-23T18:54:48.532Z,39.46
2018-07-23T18:57:18.499Z,39.76
2018-07-23T18:59:49.179Z,39.91
2018-07-23T19:02:20.718Z,40.09
2018-07-23T19:04:50.933Z,40.75
2018-07-23T19:07:23.259Z,41.04
2018-07-23T19:09:55.300Z,40.44
2018-07-23T19:12:25.546Z,40.81
2018-07-23T19:14:55.794Z,40.96
2018-07-23T19:17:27.125Z,41.80
2018-07-23T19:19:57.735Z,43.22
2018-07-23T19:22:27.882Z,43.65
2018-07-23T19:24:57.797Z,44.70
2018-07-23T19:27:28.049Z,45.76
2018-07-23T19:29:58.432Z,45.95
2018-07-23T19:32:28.678Z,46.86
2018-07-23T19:34:59.648Z,47.08
2018-07-23T19:37:30.916Z,47.83
2018-07-23T19:40:01.208Z,48.16
2018-07-23T19:42:32.025Z,47.72
2018-07-23T19:45:02.471Z,48.72
2018-07-23T19:47:33.008Z,48.51
2018-07-23T19:50:03.896Z,49.10
2018-07-23T19:52:34.363Z,48.73
2018-07-23T19:55:05.017Z,48.54
2018-07-23T19:57:35.534Z,49.15
2018-07-23T20:00:06.297Z,49.39
2018-07-23T20:02:36.244Z,50.54
2018-07-23T20:05:06.741Z,50.06
2018-07-23T20:07:37.235Z,50.36
2018-07-23T20:10:07.715Z,50.82
2018-07-23T20:12:38.067Z,51.32
2018-07-23T20:15:08.217Z,51.04
2018-07-23T20:17:38.119Z,51.93
2018-07-23T20:20:09.202Z,51.36
2018-07-23T20:22:39.563Z,51.44
2018-07-23T20:25:12.312Z,51.82
2018-07-23T20:27:42.930Z,51.69
2018-07-23T20:30:13.279Z,51.91
2018-07-23T20:32:44.783Z,52.79
2018-07-23T20:35:17.275Z,52.23
2018-07-23T20:37:47.878Z,52.30
2018-07-23T20:40:18.431Z,52.95
2018-07-23T20:42:49.008Z,52.50
2018-07-23T20:45:20.543Z,52.86
2018-07-23T20:47:50.561Z,52.77
2018-07-23T20:50:20.805Z,53.17
2018-07-23T20:52:51.014Z,53.08
2018-07-23T20:55:21.300Z,53.79
2018-07-23T20:57:52.074Z,53.74
2018-07-23T21:00:22.575Z,53.64
2018-07-23T21:02:53.031Z,53.73
2018-07-23T21:05:23.496Z,53.46
2018-07-23T21:07:53.719Z,53.49
2018-07-23T21:10:24.232Z,53.66
2018-07-23T21:12:54.469Z,54.30
2018-07-23T21:15:24.802Z,54.09
2018-07-23T21:17:55.191Z,53.76
2018-07-23T21:20:25.411Z,53.59
2018-07-23T21:22:56.059Z,54.40
2018-07-23T21:25:26.600Z,54.40
2018-07-23T21:27:57.547Z,53.77
2018-07-23T21:30:27.778Z,53.56
2018-07-23T21:32:58.226Z,54.53
2018-07-23T21:35:29.168Z,54.42
2018-07-23T21:37:59.374Z,54.22
2018-07-23T21:40:29.658Z,53.94
2018-07-23T21:42:59.939Z,54.44
2018-07-23T21:45:30.194Z,54.97
2018-07-23T21:48:00.588Z,54.96
2018-07-23T21:50:30.917Z,54.14
2018-07-23T21:53:01.307Z,54.48
2018-07-23T21:55:31.426Z,54.11
2018-07-23T21:58:01.652Z,54.85
2018-07-23T22:00:32.875Z,54.98
2018-07-23T22:03:03.845Z,54.46
2018-07-23T22:05:34.062Z,54.99
2018-07-23T22:08:04.930Z,55.11
2018-07-23T22:10:35.277Z,54.64
2018-07-23T22:13:05.384Z,55.27
2018-07-23T22:15:35.683Z,55.49
2018-07-23T22:18:06.184Z,55.35
2018-07-23T22:20:36.315Z,54.75
2018-07-23T22:23:06.851Z,55.66
2018-07-23T22:25:37.127Z,55.62
2018-07-23T22:28:07.505Z,55.48
2018-07-23T22:30:38.179Z,55.02
2018-07-23T22:33:08.466Z,55.16
2018-07-23T22:35:39.398Z,55.31
2018-07-23T22:38:09.871Z,54.91
2018-07-23T22:40:40.152Z,54.82
2018-07-23T22:43:10.193Z,55.36
2018-07-23T22:45:40.478Z,55.49
2018-07-23T22:48:10.841Z,55.76
2018-07-23T22:50:40.984Z,55.39
2018-07-23T22:53:11.187Z,55.35
2018-07-23T22:55:41.425Z,55.64
2018-07-23T22:58:11.585Z,56.43
2018-07-23T23:00:41.914Z,55.75
2018-07-23T23:03:12.438Z,56.17
2018-07-23T23:05:42.936Z,56.77
2018-07-23T23:08:13.580Z,56.84
2018-07-23T23:10:43.373Z,56.42
2018-07-23T23:13:13.561Z,57.01
2018-07-23T23:15:43.817Z,56.77
2018-07-23T23:18:14.402Z,56.45
2018-07-23T23:20:44.738Z,56.80
2018-07-23T23:23:15.039Z,56.92
2018-07-23T23:25:45.468Z,57.50
2018-07-23T23:28:15.801Z,57.57
2018-07-23T23:30:46.085Z,57.01
2018-07-23T23:33:16.230Z,57.03
2018-07-23T23:35:46.365Z,57.93
2018-07-23T23:38:16.708Z,57.64
2018-07-23T23:40:46.801Z,57.39
2018-07-23T23:43:16.992Z,57.48
2018-07-23T23:45:47.773Z,58.35
2018-07-23T23:48:17.676Z,57.49
2018-07-23T23:50:48.410Z,57.93
2018-07-23T23:53:18.721Z,57.56
2018-07-23T23:55:48.794Z,58.20
2018-07-23T23:58:19.252Z,57.68
